sensor_id;sensor_type;location;lat;lon;timestamp;P1;durP1;ratioP1;P2;durP2;ratioP2
4704;SDS011;2366;51.332;6.610;2023-03-01T00:01:46;11.00;;;8.50;;
4704;SDS011;2366;51.332;6.610;2023-03-01T00:04:12;7.50;;;6.80;;
4704;SDS011;2366;51.332;6.610;2023-03-01T00:06:37;12.97;;;7.33;;
4704;SDS011;2366;51.332;6.610;2023-03-01T00:09:03;9.23;;;7.73;;
4704;SDS011;2366;51.332;6.610;2023-03-01T00:11:29;12.37;;;8.73;;
4704;SDS011;2366;51.332;6.610;2023-03-01T00:13:56;13.90;;;7.65;;
4704;SDS011;2366;51.332;6.610;2023-03-01T00:16:24;28.00;;;7.95;;
4704;SDS011;2366;51.332;6.610;2023-03-01T00:18:51;12.50;;;7.53;;
4704;SDS011;2366;51.332;6.610;2023-03-01T00:21:19;10.45;;;6.90;;
4704;SDS011;2366;51.332;6.610;2023-03-01T00:23:46;14.18;;;7.82;;
4704;SDS011;2366;51.332;6.610;2023-03-01T00:26:13;16.80;;;7.40;;
4704;SDS011;2366;51.332;6.610;2023-03-01T00:28:40;12.00;;;7.88;;
4704;SDS011;2366;51.332;6.610;2023-03-01T00:31:07;10.47;;;7.70;;
4704;SDS011;2366;51.332;6.610;2023-03-01T00:33:34;10.90;;;8.20;;
4704;SDS011;2366;51.332;6.610;2023-03-01T00:35:59;10.63;;;7.70;;
4704;SDS011;2366;51.332;6.610;2023-03-01T00:38:25;9.15;;;7.97;;
4704;SDS011;2366;51.332;6.610;2023-03-01T00:40:51;13.03;;;7.90;;
4704;SDS011;2366;51.332;6.610;2023-03-01T00:43:17;13.40;;;8.23;;
4704;SDS011;2366;51.332;6.610;2023-03-01T00:45:43;9.07;;;6.88;;
4704;SDS011;2366;51.332;6.610;2023-03-01T00:48:08;13.17;;;8.50;;
4704;SDS011;2366;51.332;6.610;2023-03-01T00:50:34;8.33;;;7.30;;
4704;SDS011;2366;51.332;6.610;2023-03-01T00:52:59;15.80;;;8.20;;
4704;SDS011;2366;51.332;6.610;2023-03-01T00:55:24;9.30;;;7.83;;
4704;SDS011;2366;51.332;6.610;2023-03-01T00:57:50;11.50;;;7.50;;
4704;SDS011;2366;51.332;6.610;2023-03-01T01:00:16;17.97;;;8.33;;
4704;SDS011;2366;51.332;6.610;2023-03-01T01:02:42;18.13;;;8.87;;
4704;SDS011;2366;51.332;6.610;2023-03-01T01:05:07;24.97;;;9.13;;
4704;SDS011;2366;51.332;6.610;2023-03-01T01:07:33;12.00;;;7.60;;
4704;SDS011;2366;51.332;6.610;2023-03-01T01:09:58;15.47;;;8.43;;
4704;SDS011;2366;51.332;6.610;2023-03-01T01:12:23;12.30;;;7.53;;
4704;SDS011;2366;51.332;6.610;2023-03-01T01:14:49;13.50;;;8.83;;
4704;SDS011;2366;51.332;6.610;2023-03-01T01:17:14;13.67;;;8.87;;
4704;SDS011;2366;51.332;6.610;2023-03-01T01:19:40;11.93;;;7.63;;
4704;SDS011;2366;51.332;6.610;2023-03-01T01:22:05;9.43;;;8.03;;
4704;SDS011;2366;51.332;6.610;2023-03-01T01:24:30;9.30;;;7.43;;
4704;SDS011;2366;51.332;6.610;2023-03-01T01:26:56;9.80;;;7.73;;
4704;SDS011;2366;51.332;6.610;2023-03-01T01:29:21;14.27;;;8.47;;
4704;SDS011;2366;51.332;6.610;2023-03-01T01:31:47;10.00;;;7.80;;
4704;SDS011;2366;51.332;6.610;2023-03-01T01:34:17;9.93;;;7.50;;
4704;SDS011;2366;51.332;6.610;2023-03-01T01:36:47;12.20;;;9.55;;
4704;SDS011;2366;51.332;6.610;2023-03-01T01:39:20;10.90;;;8.65;;
4704;SDS011;2366;51.332;6.610;2023-03-01T01:41:47;11.30;;;7.75;;
4704;SDS011;2366;51.332;6.610;2023-03-01T01:44:25;10.30;;;7.57;;
4704;SDS011;2366;51.332;6.610;2023-03-01T01:46:54;8.90;;;7.93;;
4704;SDS011;2366;51.332;6.610;2023-03-01T01:51:55;10.85;;;8.43;;
4704;SDS011;2366;51.332;6.610;2023-03-01T01:54:39;12.45;;;8.63;;
4704;SDS011;2366;51.332;6.610;2023-03-01T01:57:13;10.40;;;7.88;;
4704;SDS011;2366;51.332;6.610;2023-03-01T01:59:43;12.77;;;8.73;;
4704;SDS011;2366;51.332;6.610;2023-03-01T02:02:12;11.23;;;8.48;;
4704;SDS011;2366;51.332;6.610;2023-03-01T02:04:38;23.80;;;8.73;;
4704;SDS011;2366;51.332;6.610;2023-03-01T02:07:10;9.07;;;8.27;;
4704;SDS011;2366;51.332;6.610;2023-03-01T02:09:42;14.75;;;9.27;;
4704;SDS011;2366;51.332;6.610;2023-03-01T02:12:12;10.82;;;8.35;;
4704;SDS011;2366;51.332;6.610;2023-03-01T02:14:38;10.88;;;9.70;;
4704;SDS011;2366;51.332;6.610;2023-03-01T02:17:04;9.77;;;8.33;;
4704;SDS011;2366;51.332;6.610;2023-03-01T02:19:44;12.00;;;9.30;;
4704;SDS011;2366;51.332;6.610;2023-03-01T02:22:34;9.20;;;8.30;;
4704;SDS011;2366;51.332;6.610;2023-03-01T02:30:28;11.82;;;8.57;;
4704;SDS011;2366;51.332;6.610;2023-03-01T02:32:56;13.25;;;9.95;;
4704;SDS011;2366;51.332;6.610;2023-03-01T02:35:27;17.85;;;9.95;;
4704;SDS011;2366;51.332;6.610;2023-03-01T02:37:57;14.27;;;8.45;;
4704;SDS011;2366;51.332;6.610;2023-03-01T02:40:25;19.60;;;8.48;;
4704;SDS011;2366;51.332;6.610;2023-03-01T02:42:55;18.73;;;10.82;;
4704;SDS011;2366;51.332;6.610;2023-03-01T02:45:22;11.43;;;7.53;;
4704;SDS011;2366;51.332;6.610;2023-03-01T02:47:48;17.60;;;9.63;;
4704;SDS011;2366;51.332;6.610;2023-03-01T02:53:16;14.73;;;9.93;;
4704;SDS011;2366;51.332;6.610;2023-03-01T02:55:49;15.00;;;11.15;;
4704;SDS011;2366;51.332;6.610;2023-03-01T02:58:15;14.00;;;9.53;;
4704;SDS011;2366;51.332;6.610;2023-03-01T03:00:41;14.80;;;8.93;;
4704;SDS011;2366;51.332;6.610;2023-03-01T03:03:15;16.02;;;9.18;;
4704;SDS011;2366;51.332;6.610;2023-03-01T03:05:42;11.00;;;8.73;;
4704;SDS011;2366;51.332;6.610;2023-03-01T03:08:08;15.80;;;9.18;;
4704;SDS011;2366;51.332;6.610;2023-03-01T03:10:37;12.00;;;8.63;;
4704;SDS011;2366;51.332;6.610;2023-03-01T03:13:06;12.32;;;9.15;;
4704;SDS011;2366;51.332;6.610;2023-03-01T03:15:34;19.27;;;11.05;;
4704;SDS011;2366;51.332;6.610;2023-03-01T03:18:04;10.45;;;9.35;;
4704;SDS011;2366;51.332;6.610;2023-03-01T03:20:32;14.13;;;10.00;;
4704;SDS011;2366;51.332;6.610;2023-03-01T03:22:58;16.27;;;10.23;;
4704;SDS011;2366;51.332;6.610;2023-03-01T03:25:24;13.00;;;8.73;;
4704;SDS011;2366;51.332;6.610;2023-03-01T03:27:51;15.52;;;10.05;;
4704;SDS011;2366;51.332;6.610;2023-03-01T03:30:24;9.48;;;8.43;;
4704;SDS011;2366;51.332;6.610;2023-03-01T03:32:52;13.70;;;9.38;;
4704;SDS011;2366;51.332;6.610;2023-03-01T03:35:25;19.67;;;9.87;;
4704;SDS011;2366;51.332;6.610;2023-03-01T03:38:01;12.23;;;9.18;;
4704;SDS011;2366;51.332;6.610;2023-03-01T03:40:40;11.50;;;9.20;;
4704;SDS011;2366;51.332;6.610;2023-03-01T03:43:08;21.33;;;10.25;;
4704;SDS011;2366;51.332;6.610;2023-03-01T03:45:38;12.32;;;9.85;;
4704;SDS011;2366;51.332;6.610;2023-03-01T03:48:05;13.03;;;10.27;;
4704;SDS011;2366;51.332;6.610;2023-03-01T03:50:32;16.85;;;9.50;;
4704;SDS011;2366;51.332;6.610;2023-03-01T03:53:00;14.75;;;9.68;;
4704;SDS011;2366;51.332;6.610;2023-03-01T03:55:26;14.60;;;11.52;;
4704;SDS011;2366;51.332;6.610;2023-03-01T03:57:56;13.13;;;10.50;;
4704;SDS011;2366;51.332;6.610;2023-03-01T04:00:23;11.98;;;8.80;;
4704;SDS011;2366;51.332;6.610;2023-03-01T04:02:49;17.03;;;9.43;;
4704;SDS011;2366;51.332;6.610;2023-03-01T04:05:16;15.40;;;10.65;;
4704;SDS011;2366;51.332;6.610;2023-03-01T04:07:43;14.68;;;10.30;;
4704;SDS011;2366;51.332;6.610;2023-03-01T04:10:13;20.10;;;10.10;;
4704;SDS011;2366;51.332;6.610;2023-03-01T04:12:41;12.00;;;9.07;;
4704;SDS011;2366;51.332;6.610;2023-03-01T04:15:08;12.35;;;9.95;;
4704;SDS011;2366;51.332;6.610;2023-03-01T04:17:47;15.52;;;10.45;;
4704;SDS011;2366;51.332;6.610;2023-03-01T04:20:13;17.35;;;9.95;;
4704;SDS011;2366;51.332;6.610;2023-03-01T04:22:49;11.05;;;8.90;;
4704;SDS011;2366;51.332;6.610;2023-03-01T04:25:15;15.18;;;8.88;;
4704;SDS011;2366;51.332;6.610;2023-03-01T04:27:41;15.70;;;9.90;;
4704;SDS011;2366;51.332;6.610;2023-03-01T04:30:06;15.80;;;10.90;;
4704;SDS011;2366;51.332;6.610;2023-03-01T04:32:33;13.57;;;10.10;;
4704;SDS011;2366;51.332;6.610;2023-03-01T04:34:59;12.40;;;9.70;;
4704;SDS011;2366;51.332;6.610;2023-03-01T04:37:25;13.40;;;8.80;;
4704;SDS011;2366;51.332;6.610;2023-03-01T04:39:50;16.10;;;10.77;;
4704;SDS011;2366;51.332;6.610;2023-03-01T04:42:16;13.63;;;10.57;;
4704;SDS011;2366;51.332;6.610;2023-03-01T04:44:44;16.50;;;10.20;;
4704;SDS011;2366;51.332;6.610;2023-03-01T04:47:11;13.02;;;9.35;;
4704;SDS011;2366;51.332;6.610;2023-03-01T04:49:37;13.90;;;8.43;;
4704;SDS011;2366;51.332;6.610;2023-03-01T04:52:02;20.23;;;10.00;;
4704;SDS011;2366;51.332;6.610;2023-03-01T04:54:29;13.88;;;10.05;;
4704;SDS011;2366;51.332;6.610;2023-03-01T04:56:55;16.73;;;11.30;;
4704;SDS011;2366;51.332;6.610;2023-03-01T04:59:20;14.67;;;10.00;;
4704;SDS011;2366;51.332;6.610;2023-03-01T05:01:49;15.40;;;10.07;;
4704;SDS011;2366;51.332;6.610;2023-03-01T05:04:22;15.38;;;10.85;;
4704;SDS011;2366;51.332;6.610;2023-03-01T05:06:48;12.40;;;8.88;;
4704;SDS011;2366;51.332;6.610;2023-03-01T05:09:14;21.23;;;9.73;;
4704;SDS011;2366;51.332;6.610;2023-03-01T05:11:40;12.97;;;9.97;;
4704;SDS011;2366;51.332;6.610;2023-03-01T05:14:06;17.37;;;10.30;;
4704;SDS011;2366;51.332;6.610;2023-03-01T05:16:32;11.88;;;8.40;;
4704;SDS011;2366;51.332;6.610;2023-03-01T05:18:58;18.27;;;9.00;;
4704;SDS011;2366;51.332;6.610;2023-03-01T05:21:24;16.30;;;10.53;;
4704;SDS011;2366;51.332;6.610;2023-03-01T05:23:50;15.30;;;10.47;;
4704;SDS011;2366;51.332;6.610;2023-03-01T05:26:16;11.20;;;8.47;;
4704;SDS011;2366;51.332;6.610;2023-03-01T05:28:42;16.25;;;9.57;;
4704;SDS011;2366;51.332;6.610;2023-03-01T05:31:08;17.10;;;10.63;;
4704;SDS011;2366;51.332;6.610;2023-03-01T05:33:35;16.63;;;10.73;;
4704;SDS011;2366;51.332;6.610;2023-03-01T05:36:05;14.25;;;10.00;;
4704;SDS011;2366;51.332;6.610;2023-03-01T05:38:32;19.27;;;11.05;;
4704;SDS011;2366;51.332;6.610;2023-03-01T05:40:58;13.63;;;9.93;;
4704;SDS011;2366;51.332;6.610;2023-03-01T05:43:23;13.13;;;10.30;;
4704;SDS011;2366;51.332;6.610;2023-03-01T05:45:48;15.23;;;9.70;;
4704;SDS011;2366;51.332;6.610;2023-03-01T05:48:14;12.07;;;10.13;;
4704;SDS011;2366;51.332;6.610;2023-03-01T05:50:40;14.03;;;9.63;;
4704;SDS011;2366;51.332;6.610;2023-03-01T05:53:12;19.42;;;10.75;;
4704;SDS011;2366;51.332;6.610;2023-03-01T05:55:46;16.83;;;9.60;;
4704;SDS011;2366;51.332;6.610;2023-03-01T05:58:16;18.13;;;11.05;;
4704;SDS011;2366;51.332;6.610;2023-03-01T06:00:43;16.23;;;9.95;;
4704;SDS011;2366;51.332;6.610;2023-03-01T06:03:10;17.98;;;11.30;;
4704;SDS011;2366;51.332;6.610;2023-03-01T06:05:38;18.45;;;10.27;;
4704;SDS011;2366;51.332;6.610;2023-03-01T06:08:04;16.25;;;10.95;;
4704;SDS011;2366;51.332;6.610;2023-03-01T06:10:30;17.70;;;11.67;;
4704;SDS011;2366;51.332;6.610;2023-03-01T06:12:55;27.43;;;12.63;;
4704;SDS011;2366;51.332;6.610;2023-03-01T06:15:21;16.23;;;11.03;;
4704;SDS011;2366;51.332;6.610;2023-03-01T06:17:47;17.83;;;11.68;;
4704;SDS011;2366;51.332;6.610;2023-03-01T06:20:14;18.40;;;10.85;;
4704;SDS011;2366;51.332;6.610;2023-03-01T06:22:41;15.10;;;11.10;;
4704;SDS011;2366;51.332;6.610;2023-03-01T06:25:08;14.65;;;11.07;;
4704;SDS011;2366;51.332;6.610;2023-03-01T06:27:39;21.25;;;11.40;;
4704;SDS011;2366;51.332;6.610;2023-03-01T06:30:05;18.00;;;10.83;;
4704;SDS011;2366;51.332;6.610;2023-03-01T06:32:33;19.88;;;11.05;;
4704;SDS011;2366;51.332;6.610;2023-03-01T06:34:58;14.80;;;10.80;;
4704;SDS011;2366;51.332;6.610;2023-03-01T06:37:24;18.67;;;11.80;;
4704;SDS011;2366;51.332;6.610;2023-03-01T06:39:50;21.35;;;12.55;;
4704;SDS011;2366;51.332;6.610;2023-03-01T06:42:16;14.60;;;10.50;;
4704;SDS011;2366;51.332;6.610;2023-03-01T06:44:41;11.90;;;10.17;;
4704;SDS011;2366;51.332;6.610;2023-03-01T06:47:07;17.10;;;11.87;;
4704;SDS011;2366;51.332;6.610;2023-03-01T06:49:32;21.63;;;14.00;;
4704;SDS011;2366;51.332;6.610;2023-03-01T06:51:57;20.80;;;13.67;;
4704;SDS011;2366;51.332;6.610;2023-03-01T06:54:23;27.87;;;13.27;;
4704;SDS011;2366;51.332;6.610;2023-03-01T06:56:49;20.60;;;12.80;;
4704;SDS011;2366;51.332;6.610;2023-03-01T06:59:15;18.92;;;10.90;;
4704;SDS011;2366;51.332;6.610;2023-03-01T07:01:41;15.10;;;10.95;;
4704;SDS011;2366;51.332;6.610;2023-03-01T07:04:08;18.85;;;10.45;;
4704;SDS011;2366;51.332;6.610;2023-03-01T07:06:34;21.40;;;12.13;;
4704;SDS011;2366;51.332;6.610;2023-03-01T07:08:59;15.30;;;10.07;;
4704;SDS011;2366;51.332;6.610;2023-03-01T07:11:24;17.93;;;10.90;;
4704;SDS011;2366;51.332;6.610;2023-03-01T07:13:50;23.10;;;13.10;;
4704;SDS011;2366;51.332;6.610;2023-03-01T07:16:15;23.97;;;13.97;;
4704;SDS011;2366;51.332;6.610;2023-03-01T07:18:41;21.60;;;13.70;;
4704;SDS011;2366;51.332;6.610;2023-03-01T07:21:07;21.27;;;13.77;;
4704;SDS011;2366;51.332;6.610;2023-03-01T07:23:33;20.70;;;12.32;;
4704;SDS011;2366;51.332;6.610;2023-03-01T07:25:59;15.87;;;10.60;;
4704;SDS011;2366;51.332;6.610;2023-03-01T07:28:31;17.42;;;12.27;;
4704;SDS011;2366;51.332;6.610;2023-03-01T07:31:03;22.75;;;10.65;;
4704;SDS011;2366;51.332;6.610;2023-03-01T07:33:29;19.42;;;11.52;;
4704;SDS011;2366;51.332;6.610;2023-03-01T07:35:56;20.60;;;12.00;;
4704;SDS011;2366;51.332;6.610;2023-03-01T07:38:28;20.60;;;12.13;;
4704;SDS011;2366;51.332;6.610;2023-03-01T07:40:58;24.07;;;13.03;;
4704;SDS011;2366;51.332;6.610;2023-03-01T07:43:25;18.17;;;11.98;;
4704;SDS011;2366;51.332;6.610;2023-03-01T07:45:51;16.63;;;12.00;;
4704;SDS011;2366;51.332;6.610;2023-03-01T07:48:16;18.60;;;11.33;;
4704;SDS011;2366;51.332;6.610;2023-03-01T07:50:42;26.63;;;10.23;;
4704;SDS011;2366;51.332;6.610;2023-03-01T07:53:08;34.37;;;11.60;;
4704;SDS011;2366;51.332;6.610;2023-03-01T07:55:34;16.98;;;11.00;;
4704;SDS011;2366;51.332;6.610;2023-03-01T07:58:00;13.63;;;11.33;;
4704;SDS011;2366;51.332;6.610;2023-03-01T08:00:25;21.23;;;11.90;;
4704;SDS011;2366;51.332;6.610;2023-03-01T08:02:51;16.80;;;12.10;;
4704;SDS011;2366;51.332;6.610;2023-03-01T08:05:16;21.97;;;10.87;;
4704;SDS011;2366;51.332;6.610;2023-03-01T08:07:42;17.13;;;12.13;;
4704;SDS011;2366;51.332;6.610;2023-03-01T08:10:07;20.57;;;11.27;;
4704;SDS011;2366;51.332;6.610;2023-03-01T08:12:33;18.23;;;12.18;;
4704;SDS011;2366;51.332;6.610;2023-03-01T08:14:58;20.27;;;12.63;;
4704;SDS011;2366;51.332;6.610;2023-03-01T08:17:24;16.07;;;10.03;;
4704;SDS011;2366;51.332;6.610;2023-03-01T08:19:49;16.33;;;10.70;;
4704;SDS011;2366;51.332;6.610;2023-03-01T08:22:15;16.17;;;11.00;;
4704;SDS011;2366;51.332;6.610;2023-03-01T08:24:40;20.63;;;11.40;;
4704;SDS011;2366;51.332;6.610;2023-03-01T08:27:05;16.90;;;11.60;;
4704;SDS011;2366;51.332;6.610;2023-03-01T08:29:31;22.00;;;12.40;;
4704;SDS011;2366;51.332;6.610;2023-03-01T08:31:57;15.98;;;11.32;;
4704;SDS011;2366;51.332;6.610;2023-03-01T08:34:23;12.33;;;11.07;;
4704;SDS011;2366;51.332;6.610;2023-03-01T08:36:48;11.20;;;9.17;;
4704;SDS011;2366;51.332;6.610;2023-03-01T08:39:15;13.18;;;9.25;;
4704;SDS011;2366;51.332;6.610;2023-03-01T08:41:41;15.88;;;10.57;;
4704;SDS011;2366;51.332;6.610;2023-03-01T08:44:07;12.93;;;10.63;;
4704;SDS011;2366;51.332;6.610;2023-03-01T08:46:34;11.90;;;9.82;;
4704;SDS011;2366;51.332;6.610;2023-03-01T08:49:35;10.88;;;9.77;;
4704;SDS011;2366;51.332;6.610;2023-03-01T08:51:54;11.55;;;9.27;;
4704;SDS011;2366;51.332;6.610;2023-03-01T08:54:20;17.97;;;8.60;;
4704;SDS011;2366;51.332;6.610;2023-03-01T08:56:46;13.43;;;8.82;;
4704;SDS011;2366;51.332;6.610;2023-03-01T08:59:14;11.73;;;10.10;;
4704;SDS011;2366;51.332;6.610;2023-03-01T09:01:41;21.23;;;10.20;;
4704;SDS011;2366;51.332;6.610;2023-03-01T09:04:10;11.32;;;10.13;;
4704;SDS011;2366;51.332;6.610;2023-03-01T09:06:39;12.57;;;9.07;;
4704;SDS011;2366;51.332;6.610;2023-03-01T09:09:05;11.90;;;8.47;;
4704;SDS011;2366;51.332;6.610;2023-03-01T09:11:31;14.82;;;9.80;;
4704;SDS011;2366;51.332;6.610;2023-03-01T09:13:58;13.63;;;10.10;;
4704;SDS011;2366;51.332;6.610;2023-03-01T09:16:23;14.00;;;10.40;;
4704;SDS011;2366;51.332;6.610;2023-03-01T09:18:50;13.37;;;9.70;;
4704;SDS011;2366;51.332;6.610;2023-03-01T09:21:17;12.85;;;9.00;;
4704;SDS011;2366;51.332;6.610;2023-03-01T09:23:45;14.90;;;9.60;;
4704;SDS011;2366;51.332;6.610;2023-03-01T09:26:13;13.18;;;10.02;;
4704;SDS011;2366;51.332;6.610;2023-03-01T09:28:44;11.70;;;9.25;;
4704;SDS011;2366;51.332;6.610;2023-03-01T09:31:11;14.23;;;9.60;;
4704;SDS011;2366;51.332;6.610;2023-03-01T09:33:40;11.07;;;9.68;;
4704;SDS011;2366;51.332;6.610;2023-03-01T09:36:07;13.23;;;9.82;;
4704;SDS011;2366;51.332;6.610;2023-03-01T09:38:35;12.68;;;9.98;;
4704;SDS011;2366;51.332;6.610;2023-03-01T09:41:01;12.57;;;10.33;;
4704;SDS011;2366;51.332;6.610;2023-03-01T09:43:47;10.77;;;9.38;;
4704;SDS011;2366;51.332;6.610;2023-03-01T09:46:19;13.65;;;9.90;;
4704;SDS011;2366;51.332;6.610;2023-03-01T09:48:48;11.73;;;8.98;;
4704;SDS011;2366;51.332;6.610;2023-03-01T09:51:38;18.38;;;11.05;;
4704;SDS011;2366;51.332;6.610;2023-03-01T09:54:03;16.95;;;10.18;;
4704;SDS011;2366;51.332;6.610;2023-03-01T09:59:33;18.45;;;10.45;;
4704;SDS011;2366;51.332;6.610;2023-03-01T10:02:07;10.65;;;8.75;;
4704;SDS011;2366;51.332;6.610;2023-03-01T10:04:49;12.30;;;9.27;;
4704;SDS011;2366;51.332;6.610;2023-03-01T10:07:19;15.13;;;9.88;;
4704;SDS011;2366;51.332;6.610;2023-03-01T10:09:45;14.10;;;10.55;;
4704;SDS011;2366;51.332;6.610;2023-03-01T10:12:13;11.25;;;9.50;;
4704;SDS011;2366;51.332;6.610;2023-03-01T10:14:56;14.48;;;9.10;;
4704;SDS011;2366;51.332;6.610;2023-03-01T10:17:30;10.05;;;8.30;;
4704;SDS011;2366;51.332;6.610;2023-03-01T10:20:14;13.90;;;10.40;;
4704;SDS011;2366;51.332;6.610;2023-03-01T10:22:43;12.32;;;9.45;;
4704;SDS011;2366;51.332;6.610;2023-03-01T10:25:15;16.30;;;9.63;;
4704;SDS011;2366;51.332;6.610;2023-03-01T10:27:52;13.48;;;9.95;;
4704;SDS011;2366;51.332;6.610;2023-03-01T10:30:34;15.20;;;10.30;;
4704;SDS011;2366;51.332;6.610;2023-03-01T10:33:05;15.25;;;9.10;;
4704;SDS011;2366;51.332;6.610;2023-03-01T10:35:46;15.77;;;10.35;;
4704;SDS011;2366;51.332;6.610;2023-03-01T10:38:13;13.45;;;10.57;;
4704;SDS011;2366;51.332;6.610;2023-03-01T10:40:51;13.75;;;10.63;;
4704;SDS011;2366;51.332;6.610;2023-03-01T10:43:16;11.40;;;9.90;;
4704;SDS011;2366;51.332;6.610;2023-03-01T10:45:44;14.70;;;8.73;;
4704;SDS011;2366;51.332;6.610;2023-03-01T10:48:15;12.57;;;8.50;;
4704;SDS011;2366;51.332;6.610;2023-03-01T10:50:44;15.40;;;8.88;;
4704;SDS011;2366;51.332;6.610;2023-03-01T10:56:02;15.77;;;8.85;;
4704;SDS011;2366;51.332;6.610;2023-03-01T10:58:30;10.75;;;8.40;;
4704;SDS011;2366;51.332;6.610;2023-03-01T11:01:01;13.10;;;8.35;;
4704;SDS011;2366;51.332;6.610;2023-03-01T11:03:29;11.40;;;9.00;;
4704;SDS011;2366;51.332;6.610;2023-03-01T11:05:59;11.80;;;7.50;;
4704;SDS011;2366;51.332;6.610;2023-03-01T11:11:22;13.23;;;8.75;;
4704;SDS011;2366;51.332;6.610;2023-03-01T11:14:01;10.52;;;6.72;;
4704;SDS011;2366;51.332;6.610;2023-03-01T11:16:37;17.17;;;8.90;;
4704;SDS011;2366;51.332;6.610;2023-03-01T11:21:39;13.35;;;7.78;;
4704;SDS011;2366;51.332;6.610;2023-03-01T11:24:11;10.93;;;8.15;;
4704;SDS011;2366;51.332;6.610;2023-03-01T11:26:40;10.88;;;8.68;;
4704;SDS011;2366;51.332;6.610;2023-03-01T11:29:17;12.13;;;9.20;;
4704;SDS011;2366;51.332;6.610;2023-03-01T11:31:52;13.02;;;8.90;;
4704;SDS011;2366;51.332;6.610;2023-03-01T11:34:23;11.63;;;9.32;;
4704;SDS011;2366;51.332;6.610;2023-03-01T11:37:01;9.35;;;7.85;;
4704;SDS011;2366;51.332;6.610;2023-03-01T11:42:11;21.20;;;9.15;;
4704;SDS011;2366;51.332;6.610;2023-03-01T11:44:40;11.90;;;7.75;;
4704;SDS011;2366;51.332;6.610;2023-03-01T11:58:04;8.35;;;7.20;;
4704;SDS011;2366;51.332;6.610;2023-03-01T12:00:50;16.60;;;8.55;;
4704;SDS011;2366;51.332;6.610;2023-03-01T12:03:25;14.23;;;8.07;;
4704;SDS011;2366;51.332;6.610;2023-03-01T12:08:43;7.38;;;6.03;;
4704;SDS011;2366;51.332;6.610;2023-03-01T12:22:30;8.90;;;6.85;;
4704;SDS011;2366;51.332;6.610;2023-03-01T12:30:42;9.57;;;6.78;;
4704;SDS011;2366;51.332;6.610;2023-03-01T12:49:19;10.65;;;6.85;;
4704;SDS011;2366;51.332;6.610;2023-03-01T12:51:53;11.85;;;7.55;;
4704;SDS011;2366;51.332;6.610;2023-03-01T12:54:28;10.60;;;6.13;;
4704;SDS011;2366;51.332;6.610;2023-03-01T12:56:57;9.57;;;7.03;;
4704;SDS011;2366;51.332;6.610;2023-03-01T12:59:39;10.23;;;7.55;;
4704;SDS011;2366;51.332;6.610;2023-03-01T13:02:26;7.70;;;5.65;;
4704;SDS011;2366;51.332;6.610;2023-03-01T13:10:24;11.98;;;5.57;;
4704;SDS011;2366;51.332;6.610;2023-03-01T13:15:37;7.40;;;6.10;;
4704;SDS011;2366;51.332;6.610;2023-03-01T13:31:03;12.93;;;7.15;;
4704;SDS011;2366;51.332;6.610;2023-03-01T13:35:59;9.10;;;6.80;;
4704;SDS011;2366;51.332;6.610;2023-03-01T13:46:52;7.80;;;6.88;;
4704;SDS011;2366;51.332;6.610;2023-03-01T13:49:25;12.65;;;7.50;;
4704;SDS011;2366;51.332;6.610;2023-03-01T13:51:53;8.25;;;6.35;;
4704;SDS011;2366;51.332;6.610;2023-03-01T13:54:29;10.43;;;7.10;;
4704;SDS011;2366;51.332;6.610;2023-03-01T13:56:57;9.60;;;6.55;;
4704;SDS011;2366;51.332;6.610;2023-03-01T13:59:25;8.82;;;6.05;;
4704;SDS011;2366;51.332;6.610;2023-03-01T14:02:00;14.33;;;6.80;;
4704;SDS011;2366;51.332;6.610;2023-03-01T14:09:58;9.15;;;5.93;;
4704;SDS011;2366;51.332;6.610;2023-03-01T14:15:29;10.05;;;6.82;;
4704;SDS011;2366;51.332;6.610;2023-03-01T14:18:04;12.65;;;6.50;;
4704;SDS011;2366;51.332;6.610;2023-03-01T14:20:42;9.88;;;6.78;;
4704;SDS011;2366;51.332;6.610;2023-03-01T14:23:13;7.07;;;6.38;;
4704;SDS011;2366;51.332;6.610;2023-03-01T14:25:49;7.45;;;5.82;;
4704;SDS011;2366;51.332;6.610;2023-03-01T14:28:18;15.10;;;6.07;;
4704;SDS011;2366;51.332;6.610;2023-03-01T14:30:47;9.63;;;6.03;;
4704;SDS011;2366;51.332;6.610;2023-03-01T14:33:19;8.57;;;6.70;;
4704;SDS011;2366;51.332;6.610;2023-03-01T14:35:57;13.63;;;7.20;;
4704;SDS011;2366;51.332;6.610;2023-03-01T14:38:34;11.38;;;6.60;;
4704;SDS011;2366;51.332;6.610;2023-03-01T14:41:08;10.20;;;6.25;;
4704;SDS011;2366;51.332;6.610;2023-03-01T14:43:40;17.05;;;7.57;;
4704;SDS011;2366;51.332;6.610;2023-03-01T14:46:23;10.23;;;6.50;;
4704;SDS011;2366;51.332;6.610;2023-03-01T14:49:01;10.00;;;6.93;;
4704;SDS011;2366;51.332;6.610;2023-03-01T14:51:30;8.23;;;6.60;;
4704;SDS011;2366;51.332;6.610;2023-03-01T14:53:55;16.40;;;7.13;;
4704;SDS011;2366;51.332;6.610;2023-03-01T14:56:21;11.53;;;6.70;;
4704;SDS011;2366;51.332;6.610;2023-03-01T14:58:50;16.83;;;7.10;;
4704;SDS011;2366;51.332;6.610;2023-03-01T15:01:17;10.73;;;7.43;;
4704;SDS011;2366;51.332;6.610;2023-03-01T15:03:46;8.27;;;6.57;;
4704;SDS011;2366;51.332;6.610;2023-03-01T15:06:14;12.80;;;6.70;;
4704;SDS011;2366;51.332;6.610;2023-03-01T15:08:45;13.55;;;8.23;;
4704;SDS011;2366;51.332;6.610;2023-03-01T15:11:17;10.63;;;7.93;;
4704;SDS011;2366;51.332;6.610;2023-03-01T15:13:49;10.27;;;7.00;;
4704;SDS011;2366;51.332;6.610;2023-03-01T15:16:19;11.05;;;7.80;;
4704;SDS011;2366;51.332;6.610;2023-03-01T15:18:49;9.93;;;7.22;;
4704;SDS011;2366;51.332;6.610;2023-03-01T15:21:16;11.30;;;7.10;;
4704;SDS011;2366;51.332;6.610;2023-03-01T15:23:51;11.48;;;7.82;;
4704;SDS011;2366;51.332;6.610;2023-03-01T15:26:23;12.20;;;7.15;;
4704;SDS011;2366;51.332;6.610;2023-03-01T15:28:58;16.85;;;8.82;;
4704;SDS011;2366;51.332;6.610;2023-03-01T15:31:25;10.35;;;7.50;;
4704;SDS011;2366;51.332;6.610;2023-03-01T15:41:56;14.85;;;8.18;;
4704;SDS011;2366;51.332;6.610;2023-03-01T15:44:26;13.27;;;7.50;;
4704;SDS011;2366;51.332;6.610;2023-03-01T15:46:54;11.75;;;8.43;;
4704;SDS011;2366;51.332;6.610;2023-03-01T15:49:35;12.63;;;7.90;;
4704;SDS011;2366;51.332;6.610;2023-03-01T15:52:05;14.40;;;8.82;;
4704;SDS011;2366;51.332;6.610;2023-03-01T15:54:38;11.40;;;7.40;;
4704;SDS011;2366;51.332;6.610;2023-03-01T15:57:05;11.57;;;8.63;;
4704;SDS011;2366;51.332;6.610;2023-03-01T15:59:35;13.25;;;8.52;;
4704;SDS011;2366;51.332;6.610;2023-03-01T16:02:00;14.37;;;7.63;;
4704;SDS011;2366;51.332;6.610;2023-03-01T16:04:25;15.40;;;7.80;;
4704;SDS011;2366;51.332;6.610;2023-03-01T16:06:51;11.87;;;7.77;;
4704;SDS011;2366;51.332;6.610;2023-03-01T16:09:24;10.90;;;8.05;;
4704;SDS011;2366;51.332;6.610;2023-03-01T16:11:51;11.27;;;7.45;;
4704;SDS011;2366;51.332;6.610;2023-03-01T16:14:18;13.77;;;7.20;;
4704;SDS011;2366;51.332;6.610;2023-03-01T16:16:43;11.33;;;7.90;;
4704;SDS011;2366;51.332;6.610;2023-03-01T16:19:10;11.57;;;8.20;;
4704;SDS011;2366;51.332;6.610;2023-03-01T16:21:36;9.70;;;7.83;;
4704;SDS011;2366;51.332;6.610;2023-03-01T16:24:01;12.17;;;7.37;;
4704;SDS011;2366;51.332;6.610;2023-03-01T16:26:27;13.90;;;8.60;;
4704;SDS011;2366;51.332;6.610;2023-03-01T16:28:56;16.67;;;8.23;;
4704;SDS011;2366;51.332;6.610;2023-03-01T16:31:22;10.82;;;6.57;;
4704;SDS011;2366;51.332;6.610;2023-03-01T16:33:49;13.70;;;7.85;;
4704;SDS011;2366;51.332;6.610;2023-03-01T16:36:17;12.48;;;7.93;;
4704;SDS011;2366;51.332;6.610;2023-03-01T16:38:44;12.18;;;7.15;;
4704;SDS011;2366;51.332;6.610;2023-03-01T16:41:14;14.57;;;7.20;;
4704;SDS011;2366;51.332;6.610;2023-03-01T16:43:40;10.82;;;8.27;;
4704;SDS011;2366;51.332;6.610;2023-03-01T16:46:10;14.47;;;8.17;;
4704;SDS011;2366;51.332;6.610;2023-03-01T16:48:36;10.00;;;7.50;;
4704;SDS011;2366;51.332;6.610;2023-03-01T16:51:01;10.47;;;7.67;;
4704;SDS011;2366;51.332;6.610;2023-03-01T16:53:27;10.97;;;8.17;;
4704;SDS011;2366;51.332;6.610;2023-03-01T16:55:54;12.25;;;7.30;;
4704;SDS011;2366;51.332;6.610;2023-03-01T16:58:23;14.63;;;7.97;;
4704;SDS011;2366;51.332;6.610;2023-03-01T17:00:50;20.27;;;9.77;;
4704;SDS011;2366;51.332;6.610;2023-03-01T17:03:21;12.88;;;9.40;;
4704;SDS011;2366;51.332;6.610;2023-03-01T17:05:47;27.15;;;16.35;;
4704;SDS011;2366;51.332;6.610;2023-03-01T17:08:13;22.00;;;16.23;;